createdAt,value
2022-11-06T00:02:00.834Z,5.20
2022-11-06T00:04:49.742Z,4.57
2022-11-06T00:07:37.805Z,5.13
2022-11-06T00:10:28.065Z,5.20
2022-11-06T00:13:16.896Z,4.60
2022-11-06T00:16:06.671Z,4.77
2022-11-06T00:18:55.840Z,4.73
2022-11-06T00:21:45.009Z,5.37
2022-11-06T00:24:33.832Z,5.10
2022-11-06T00:27:24.085Z,5.60
2022-11-06T00:30:13.047Z,5.00
2022-11-06T00:33:01.920Z,5.03
2022-11-06T00:35:50.751Z,6.70
2022-11-06T00:38:39.592Z,6.80
2022-11-06T00:41:28.551Z,6.60
2022-11-06T00:44:18.674Z,7.33
2022-11-06T00:47:07.467Z,7.13
2022-11-06T00:49:56.265Z,5.93
2022-11-06T00:52:45.358Z,5.63
2022-11-06T00:55:34.176Z,5.43
2022-11-06T00:58:22.963Z,5.00
2022-11-06T01:01:14.371Z,5.03
2022-11-06T01:04:05.154Z,5.83
2022-11-06T01:06:56.635Z,5.60
2022-11-06T01:09:45.524Z,5.43
2022-11-06T01:12:34.462Z,5.63
2022-11-06T01:15:23.268Z,5.20
2022-11-06T01:18:13.704Z,6.00
2022-11-06T01:21:05.098Z,5.63
2022-11-06T01:23:54.718Z,5.37
2022-11-06T01:26:58.800Z,5.90
2022-11-06T01:29:52.598Z,5.43
2022-11-06T01:32:41.546Z,4.47
2022-11-06T01:35:31.725Z,5.13
2022-11-06T01:38:20.572Z,4.30
2022-11-06T01:41:09.357Z,4.37
2022-11-06T01:43:59.488Z,3.60
2022-11-06T01:46:48.301Z,4.90
2022-11-06T01:49:39.385Z,4.10
2022-11-06T01:52:30.454Z,4.10
2022-11-06T01:55:21.055Z,3.80
2022-11-06T01:58:11.702Z,3.90
2022-11-06T02:01:01.014Z,3.93
2022-11-06T02:03:51.866Z,3.97
2022-11-06T02:06:40.812Z,3.77
2022-11-06T02:09:31.939Z,3.60
2022-11-06T02:12:27.190Z,3.80
2022-11-06T02:15:18.633Z,3.13
2022-11-06T02:18:16.169Z,4.70
2022-11-06T02:21:17.286Z,4.40
2022-11-06T02:24:13.959Z,3.37
2022-11-06T02:27:11.100Z,4.10
2022-11-06T02:30:01.760Z,2.70
2022-11-06T02:32:54.340Z,3.10
2022-11-06T02:35:47.613Z,3.10
2022-11-06T02:38:38.936Z,3.70
2022-11-06T02:41:31.026Z,3.50
2022-11-06T02:44:22.787Z,3.97
2022-11-06T02:47:12.684Z,4.03
2022-11-06T02:50:05.495Z,4.30
2022-11-06T02:52:56.243Z,4.87
2022-11-06T02:55:47.731Z,4.60
2022-11-06T02:58:43.512Z,4.97
2022-11-06T03:01:39.181Z,4.63
2022-11-06T03:04:31.112Z,4.50
2022-11-06T03:07:21.821Z,3.50
2022-11-06T03:10:11.581Z,4.23
2022-11-06T03:13:02.945Z,3.20
2022-11-06T03:15:54.823Z,3.23
2022-11-06T03:18:51.058Z,2.53
2022-11-06T03:21:44.400Z,2.90
2022-11-06T03:24:35.841Z,2.90
2022-11-06T03:27:25.699Z,2.53
2022-11-06T03:30:16.975Z,4.93
2022-11-06T03:33:10.238Z,2.77
2022-11-06T03:36:03.919Z,3.03
2022-11-06T03:38:54.368Z,3.27
2022-11-06T03:41:45.464Z,3.83
2022-11-06T03:44:35.917Z,2.43
2022-11-06T03:47:27.825Z,3.03
2022-11-06T03:50:21.956Z,2.73
2022-11-06T03:53:14.048Z,3.03
2022-11-06T03:56:06.841Z,2.73
2022-11-06T03:58:56.694Z,2.73
2022-11-06T04:01:47.264Z,3.27
2022-11-06T04:04:40.086Z,4.30
2022-11-06T04:07:30.534Z,4.10
2022-11-06T04:10:49.775Z,4.03
2022-11-06T04:13:57.402Z,4.00
2022-11-06T04:16:48.574Z,3.77
2022-11-06T04:19:37.319Z,3.47
2022-11-06T04:22:33.613Z,3.40
2022-11-06T04:25:49.090Z,3.20
2022-11-06T04:28:40.345Z,3.03
2022-11-06T04:31:34.784Z,3.03
2022-11-06T04:34:29.547Z,2.83
2022-11-06T04:37:23.130Z,2.87
2022-11-06T04:40:13.685Z,2.70
2022-11-06T04:43:05.044Z,2.40
2022-11-06T04:45:55.791Z,2.60
2022-11-06T04:48:45.338Z,2.80
2022-11-06T04:51:36.014Z,2.87
2022-11-06T04:54:25.413Z,2.53
2022-11-06T04:57:14.251Z,2.27
2022-11-06T05:00:04.535Z,2.33
2022-11-06T05:02:53.363Z,2.63
2022-11-06T05:05:42.183Z,2.73
2022-11-06T05:08:31.007Z,2.30
2022-11-06T05:11:19.864Z,2.00
2022-11-06T05:14:08.693Z,2.10
2022-11-06T05:16:58.819Z,2.37
2022-11-06T05:19:47.590Z,2.73
2022-11-06T05:22:53.885Z,2.73
2022-11-06T05:25:42.959Z,2.43
2022-11-06T05:28:31.825Z,2.90
2022-11-06T05:31:20.629Z,2.80
2022-11-06T05:34:10.886Z,2.30
2022-11-06T05:36:59.713Z,2.20
2022-11-06T05:39:48.758Z,2.40
2022-11-06T05:42:38.732Z,2.40
2022-11-06T05:45:27.664Z,2.27
2022-11-06T05:48:16.589Z,2.40
2022-11-06T05:51:07.516Z,2.77
2022-11-06T05:53:56.883Z,2.53
2022-11-06T05:56:45.719Z,2.43
2022-11-06T05:59:34.528Z,2.77
2022-11-06T06:02:23.500Z,2.40
2022-11-06T06:05:12.693Z,2.90
2022-11-06T06:08:02.853Z,3.50
2022-11-06T06:10:51.628Z,2.53
2022-11-06T06:13:40.427Z,2.50
2022-11-06T06:16:29.280Z,2.63
2022-11-06T06:19:18.116Z,3.20
2022-11-06T06:22:06.924Z,2.83
2022-11-06T06:24:57.138Z,2.30
2022-11-06T06:27:46.031Z,2.80
2022-11-06T06:30:35.780Z,2.43
2022-11-06T06:33:24.654Z,2.83
2022-11-06T06:36:13.493Z,2.53
2022-11-06T06:39:02.329Z,2.30
2022-11-06T06:41:52.477Z,2.70
2022-11-06T06:44:41.284Z,3.40
2022-11-06T06:47:30.082Z,2.50
2022-11-06T06:50:19.146Z,2.83
2022-11-06T06:53:07.984Z,2.17
2022-11-06T06:55:56.836Z,2.13
2022-11-06T06:58:47.036Z,2.70
2022-11-06T07:01:35.970Z,2.73
2022-11-06T07:04:25.169Z,2.20
2022-11-06T07:07:13.982Z,2.40
2022-11-06T07:10:02.773Z,2.77
2022-11-06T07:12:51.567Z,2.27
2022-11-06T07:15:41.689Z,2.43
2022-11-06T07:18:30.477Z,2.17
2022-11-06T07:21:19.300Z,2.13
2022-11-06T07:24:08.219Z,2.50
2022-11-06T07:26:57.076Z,2.20
2022-11-06T07:29:45.925Z,2.23
2022-11-06T07:32:36.073Z,1.67
2022-11-06T07:35:24.861Z,2.07
2022-11-06T07:38:13.781Z,1.70
2022-11-06T07:41:03.994Z,1.83
2022-11-06T07:43:53.385Z,1.60
2022-11-06T07:46:42.187Z,2.00
2022-11-06T07:49:32.311Z,2.20
2022-11-06T07:52:21.179Z,1.93
2022-11-06T07:55:10.627Z,1.40
2022-11-06T07:57:59.803Z,2.13
2022-11-06T08:00:49.307Z,1.23
2022-11-06T08:03:38.239Z,1.60
2022-11-06T08:06:28.403Z,1.27
2022-11-06T08:09:17.378Z,1.00
2022-11-06T08:12:06.501Z,1.10
2022-11-06T08:14:55.283Z,1.40
2022-11-06T08:17:44.112Z,0.90
2022-11-06T08:20:32.944Z,1.40
2022-11-06T08:23:23.134Z,1.23
2022-11-06T08:26:12.436Z,1.03
2022-11-06T08:29:01.321Z,0.90
2022-11-06T08:31:50.130Z,1.40
2022-11-06T08:34:38.920Z,1.47
2022-11-06T08:37:27.760Z,1.10
2022-11-06T08:40:18.079Z,1.13
2022-11-06T08:43:07.601Z,1.20
2022-11-06T08:45:56.392Z,1.17
2022-11-06T08:48:45.189Z,2.00
2022-11-06T08:51:33.997Z,2.37
2022-11-06T08:54:22.902Z,1.20
2022-11-06T08:57:13.084Z,1.57
2022-11-06T09:00:01.877Z,1.13
2022-11-06T09:02:50.730Z,1.17
2022-11-06T09:05:40.818Z,1.37
2022-11-06T09:08:29.623Z,1.40
2022-11-06T09:11:18.415Z,1.40
2022-11-06T09:14:08.588Z,1.13
2022-11-06T09:16:57.385Z,1.60
2022-11-06T09:19:46.236Z,1.20
2022-11-06T09:22:35.115Z,1.77
2022-11-06T09:25:23.945Z,1.67
2022-11-06T09:28:12.758Z,0.90
2022-11-06T09:31:03.070Z,1.33
2022-11-06T09:33:51.980Z,1.00
2022-11-06T09:36:40.813Z,1.70
2022-11-06T09:39:29.658Z,1.43
2022-11-06T09:42:23.106Z,1.03
2022-11-06T09:45:13.877Z,1.20
2022-11-06T09:48:07.156Z,1.23
2022-11-06T09:50:57.679Z,1.77
2022-11-06T09:53:49.201Z,1.10
2022-11-06T09:56:39.729Z,1.10
2022-11-06T09:59:28.657Z,1.60
2022-11-06T10:02:22.290Z,1.27
2022-11-06T10:05:16.748Z,2.17
2022-11-06T10:08:07.147Z,2.33
2022-11-06T10:10:59.877Z,1.80
2022-11-06T10:13:54.280Z,1.80
2022-11-06T10:16:45.859Z,1.70
2022-11-06T10:19:39.384Z,1.87
2022-11-06T10:22:34.493Z,1.60
2022-11-06T10:25:24.017Z,1.50
2022-11-06T10:28:18.587Z,1.60
2022-11-06T10:31:10.576Z,1.50
2022-11-06T10:34:02.135Z,1.40
2022-11-06T10:36:52.990Z,1.53
2022-11-06T10:39:43.932Z,1.80
2022-11-06T10:42:37.810Z,1.80
2022-11-06T10:45:28.605Z,1.20
2022-11-06T10:48:27.379Z,1.83
2022-11-06T10:51:27.120Z,2.10
2022-11-06T10:54:23.383Z,1.80
2022-11-06T10:57:25.070Z,1.90
2022-11-06T11:00:15.194Z,1.30
2022-11-06T11:03:05.762Z,2.03
2022-11-06T11:05:55.742Z,0.93
2022-11-06T11:08:45.550Z,1.53
2022-11-06T11:11:34.323Z,1.07
2022-11-06T11:14:28.291Z,1.00
2022-11-06T11:20:56.958Z,0.87
2022-11-06T11:23:46.773Z,1.33
2022-11-06T11:26:37.534Z,1.03
2022-11-06T11:29:28.976Z,1.63
2022-11-06T11:32:19.079Z,1.20
2022-11-06T11:35:10.853Z,0.97
2022-11-06T11:38:08.527Z,0.90
2022-11-06T11:41:07.778Z,1.83
2022-11-06T11:44:05.715Z,1.50
2022-11-06T11:46:56.460Z,1.17
2022-11-06T11:49:45.251Z,1.60
2022-11-06T11:52:34.054Z,1.23
2022-11-06T11:55:25.727Z,1.70
2022-11-06T11:58:20.776Z,3.30
2022-11-06T12:01:09.704Z,1.43
2022-11-06T12:04:00.035Z,1.30
2022-11-06T12:06:56.960Z,2.13
2022-11-06T12:09:46.485Z,2.50
2022-11-06T12:12:35.958Z,1.80
2022-11-06T12:15:26.493Z,1.50
2022-11-06T12:18:17.330Z,1.60
2022-11-06T12:21:10.911Z,1.93
2022-11-06T12:24:03.065Z,1.87
2022-11-06T12:26:53.875Z,1.03
2022-11-06T12:29:44.501Z,1.67
2022-11-06T12:32:38.677Z,1.30
2022-11-06T12:35:29.683Z,1.37
2022-11-06T12:38:30.223Z,1.37
2022-11-06T12:41:23.617Z,1.43
2022-11-06T12:44:13.150Z,1.40
2022-11-06T12:47:05.561Z,1.77
2022-11-06T12:50:02.675Z,1.53
2022-11-06T12:53:06.111Z,1.20
2022-11-06T12:56:00.812Z,1.23
2022-11-06T12:58:56.767Z,1.30
2022-11-06T13:01:54.076Z,1.10
2022-11-06T13:04:47.295Z,1.80
2022-11-06T13:07:47.354Z,1.10
2022-11-06T13:10:42.690Z,1.83
2022-11-06T13:13:44.754Z,2.47
2022-11-06T13:16:36.569Z,1.47
2022-11-06T13:19:30.321Z,1.60
2022-11-06T13:22:22.418Z,1.93
2022-11-06T13:25:15.218Z,2.30
2022-11-06T13:28:08.561Z,3.13
2022-11-06T13:30:59.001Z,4.13
2022-11-06T13:33:49.883Z,3.33
2022-11-06T13:36:40.228Z,2.20
2022-11-06T13:39:31.873Z,1.40
2022-11-06T13:42:24.301Z,1.50
2022-11-06T13:45:16.427Z,1.80
2022-11-06T13:48:08.623Z,1.97
2022-11-06T13:51:00.250Z,1.20
2022-11-06T13:53:59.550Z,1.50
2022-11-06T13:56:57.110Z,2.23
2022-11-06T14:00:03.876Z,1.87
2022-11-06T14:03:13.579Z,1.90
2022-11-06T14:06:04.342Z,1.57
2022-11-06T14:08:56.532Z,1.30
2022-11-06T14:11:46.926Z,1.53
2022-11-06T14:14:36.285Z,1.83
2022-11-06T14:17:25.717Z,1.50
2022-11-06T14:20:29.301Z,1.70
2022-11-06T14:23:36.764Z,1.80
2022-11-06T14:26:40.351Z,1.87
2022-11-06T14:29:47.053Z,1.80
2022-11-06T14:32:46.259Z,2.83
2022-11-06T14:35:50.163Z,2.93
2022-11-06T14:38:39.179Z,2.90
2022-11-06T14:41:51.755Z,2.87
2022-11-06T14:44:49.926Z,2.90
2022-11-06T14:47:39.957Z,2.17
2022-11-06T14:50:30.516Z,2.00
2022-11-06T14:53:22.139Z,2.83
2022-11-06T14:56:12.368Z,4.23
2022-11-06T14:59:04.049Z,3.40
2022-11-06T15:01:59.899Z,2.63
2022-11-06T15:04:51.250Z,2.47
2022-11-06T15:08:10.437Z,1.57
2022-11-06T15:10:59.438Z,2.60
2022-11-06T15:13:48.336Z,4.37
2022-11-06T15:16:40.504Z,5.03
2022-11-06T15:19:32.602Z,3.87
2022-11-06T15:22:23.771Z,2.90
2022-11-06T15:25:21.857Z,2.17
2022-11-06T15:28:14.461Z,2.40
2022-11-06T15:31:06.086Z,2.40
2022-11-06T15:33:58.280Z,2.30
2022-11-06T15:36:51.227Z,2.17
2022-11-06T15:39:41.396Z,1.93
2022-11-06T15:42:31.698Z,1.83
2022-11-06T15:45:24.457Z,3.87
2022-11-06T15:48:24.213Z,2.27
2022-11-06T15:51:26.172Z,1.90
2022-11-06T15:54:31.474Z,2.20
2022-11-06T15:57:23.821Z,2.20
2022-11-06T16:00:18.803Z,2.83
2022-11-06T16:03:07.787Z,2.23
2022-11-06T16:05:58.565Z,3.40
2022-11-06T16:08:47.650Z,2.90
2022-11-06T16:11:38.034Z,2.77
2022-11-06T16:14:26.829Z,2.13
2022-11-06T16:17:19.171Z,3.33
2022-11-06T16:20:15.035Z,2.23
2022-11-06T16:23:05.146Z,14.10
2022-11-06T16:25:58.940Z,24.63
2022-11-06T16:28:50.740Z,2.60
2022-11-06T16:31:40.107Z,2.00
2022-11-06T16:34:37.379Z,2.67
2022-11-06T16:37:41.408Z,2.20
2022-11-06T16:40:49.105Z,3.03
2022-11-06T16:43:37.902Z,2.27
2022-11-06T16:46:48.006Z,2.40
2022-11-06T16:49:38.078Z,3.17
2022-11-06T16:52:28.101Z,3.13
2022-11-06T16:55:26.623Z,2.00
2022-11-06T16:58:16.812Z,2.80
2022-11-06T17:01:06.983Z,2.80
2022-11-06T17:03:59.207Z,2.83
2022-11-06T17:06:48.162Z,2.60
2022-11-06T17:09:37.314Z,1.40
2022-11-06T17:12:26.082Z,1.80
2022-11-06T17:15:14.882Z,3.90
2022-11-06T17:18:03.690Z,4.00
2022-11-06T17:20:55.134Z,2.87
2022-11-06T17:23:44.304Z,2.90
2022-11-06T17:26:34.353Z,2.50
2022-11-06T17:29:23.156Z,2.57
2022-11-06T17:32:11.981Z,2.07
2022-11-06T17:35:00.799Z,2.20
2022-11-06T17:37:50.915Z,3.10
2022-11-06T17:40:39.719Z,2.40
2022-11-06T17:43:28.503Z,2.87
2022-11-06T17:46:17.293Z,3.63
2022-11-06T17:49:06.309Z,2.90
2022-11-06T17:51:59.602Z,2.83
2022-11-06T17:54:49.849Z,3.00
2022-11-06T17:57:38.726Z,2.13
2022-11-06T18:00:27.526Z,3.13
2022-11-06T18:03:20.066Z,4.10
2022-11-06T18:06:10.645Z,3.50
2022-11-06T18:08:59.978Z,3.90
2022-11-06T18:11:51.664Z,4.80
2022-11-06T18:14:40.526Z,2.87
2022-11-06T18:17:29.326Z,3.07
2022-11-06T18:20:18.183Z,3.03
2022-11-06T18:23:06.959Z,4.67
2022-11-06T18:25:56.678Z,2.40
2022-11-06T18:28:46.857Z,3.27
2022-11-06T18:31:35.743Z,2.90
2022-11-06T18:34:24.612Z,3.93
2022-11-06T18:37:13.408Z,3.30
2022-11-06T18:40:02.376Z,3.10
2022-11-06T18:42:51.197Z,2.40
2022-11-06T18:45:41.578Z,2.90
2022-11-06T18:48:31.877Z,2.50
2022-11-06T18:51:34.078Z,2.63
2022-11-06T18:54:24.187Z,3.40
2022-11-06T18:57:12.975Z,2.57
2022-11-06T19:00:01.909Z,3.20
2022-11-06T19:02:52.237Z,3.10
2022-11-06T19:05:47.147Z,7.93
2022-11-06T19:08:37.369Z,5.27
2022-11-06T19:11:26.650Z,2.47
2022-11-06T19:14:15.465Z,2.50
2022-11-06T19:17:04.557Z,2.80
2022-11-06T19:19:54.700Z,2.47
2022-11-06T19:22:43.496Z,2.73
2022-11-06T19:25:32.318Z,3.17
2022-11-06T19:28:21.235Z,3.53
2022-11-06T19:31:10.072Z,4.37
2022-11-06T19:33:59.259Z,4.90
2022-11-06T19:36:49.412Z,4.97
2022-11-06T19:39:38.202Z,4.10
2022-11-06T19:42:27.048Z,4.00
2022-11-06T19:45:15.836Z,3.37
2022-11-06T19:48:04.677Z,2.67
2022-11-06T19:50:59.729Z,2.70
2022-11-06T19:53:52.927Z,3.63
2022-11-06T19:57:27.667Z,2.87
2022-11-06T19:59:50.528Z,2.83
2022-11-06T20:02:39.443Z,2.50
2022-11-06T20:05:28.316Z,3.50
2022-11-06T20:08:17.068Z,2.80
2022-11-06T20:11:07.779Z,2.53
2022-11-06T20:13:56.556Z,2.90
2022-11-06T20:16:45.377Z,3.13
2022-11-06T20:19:34.209Z,2.57
2022-11-06T20:22:24.944Z,3.00
2022-11-06T20:25:13.875Z,2.60
2022-11-06T20:28:04.033Z,2.77
2022-11-06T20:30:52.840Z,2.13
2022-11-06T20:33:41.802Z,2.30
2022-11-06T20:36:31.944Z,2.63
2022-11-06T20:39:20.723Z,2.17
2022-11-06T20:42:09.556Z,2.37
2022-11-06T20:45:00.024Z,1.93
2022-11-06T20:47:48.822Z,1.90
2022-11-06T20:50:37.633Z,2.20
2022-11-06T20:53:26.955Z,2.03
2022-11-06T20:56:16.839Z,2.10
2022-11-06T20:59:05.605Z,2.83
2022-11-06T21:01:56.587Z,2.20
2022-11-06T21:04:45.491Z,2.53
2022-11-06T21:07:35.165Z,2.17
2022-11-06T21:10:24.133Z,2.37
2022-11-06T21:13:13.273Z,2.60
2022-11-06T21:16:03.035Z,2.80
2022-11-06T21:18:53.632Z,2.57
2022-11-06T21:21:42.411Z,2.43
2022-11-06T21:24:31.188Z,1.97
2022-11-06T21:27:20.042Z,1.80
2022-11-06T21:30:09.257Z,2.07
2022-11-06T21:32:58.068Z,2.10
2022-11-06T21:35:48.236Z,2.20
2022-11-06T21:38:37.242Z,1.80
2022-11-06T21:41:26.974Z,1.87
2022-11-06T21:44:16.502Z,2.20
2022-11-06T21:47:05.302Z,2.17
2022-11-06T21:49:57.195Z,2.67
2022-11-06T21:53:04.973Z,2.10
2022-11-06T21:55:59.775Z,2.80
2022-11-06T21:58:51.592Z,1.80
2022-11-06T22:01:40.840Z,2.33
2022-11-06T22:04:29.744Z,2.40
2022-11-06T22:07:18.573Z,2.00
2022-11-06T22:10:09.673Z,2.60
2022-11-06T22:12:58.499Z,2.30
2022-11-06T22:15:47.309Z,2.10
2022-11-06T22:18:36.319Z,2.20
2022-11-06T22:21:26.160Z,1.80
2022-11-06T22:24:15.909Z,1.80
2022-11-06T22:27:06.192Z,2.20
2022-11-06T22:29:55.077Z,2.13
2022-11-06T22:32:43.917Z,1.90
2022-11-06T22:35:32.704Z,2.10
2022-11-06T22:38:21.490Z,2.03
2022-11-06T22:41:13.119Z,2.20
2022-11-06T22:44:03.252Z,2.23
2022-11-06T22:46:52.324Z,2.07
2022-11-06T22:49:41.105Z,2.33
2022-11-06T22:52:29.899Z,2.17
2022-11-06T22:55:18.867Z,1.90
2022-11-06T22:58:07.722Z,2.10
2022-11-06T23:00:58.688Z,2.20
2022-11-06T23:03:47.531Z,2.27
2022-11-06T23:06:36.853Z,1.90
2022-11-06T23:09:25.817Z,2.27
2022-11-06T23:12:15.848Z,2.10
2022-11-06T23:15:07.873Z,2.60
2022-11-06T23:17:58.123Z,2.53
2022-11-06T23:20:46.930Z,2.23
2022-11-06T23:23:35.857Z,2.07
2022-11-06T23:26:24.686Z,2.63
2022-11-06T23:29:13.533Z,2.00
2022-11-06T23:32:02.348Z,2.37
2022-11-06T23:34:53.778Z,1.87
2022-11-06T23:37:43.117Z,1.60
2022-11-06T23:40:31.880Z,1.97
2022-11-06T23:43:20.679Z,2.10
2022-11-06T23:46:08.553Z,1.97
2022-11-06T23:48:57.580Z,2.10
2022-11-06T23:51:47.785Z,1.70
2022-11-06T23:54:36.623Z,1.97
2022-11-06T23:57:25.499Z,1.60
